createdAt,value
2023-05-10T00:00:26.168Z,0
2023-05-10T00:01:26.157Z,0
2023-05-10T00:02:26.202Z,0
2023-05-10T00:03:26.198Z,0
2023-05-10T00:04:26.141Z,0
2023-05-10T00:05:26.148Z,0
2023-05-10T00:06:26.136Z,0
2023-05-10T00:07:26.147Z,0
2023-05-10T00:08:26.142Z,0
2023-05-10T00:09:26.132Z,0
2023-05-10T00:10:26.140Z,0
2023-05-10T00:11:26.133Z,0
2023-05-10T00:12:26.137Z,0
2023-05-10T00:13:26.334Z,0
2023-05-10T00:14:26.175Z,0
2023-05-10T00:15:26.159Z,0
2023-05-10T00:16:26.203Z,0
2023-05-10T00:17:26.175Z,0
2023-05-10T00:18:26.129Z,0
2023-05-10T00:19:26.146Z,0
2023-05-10T00:20:26.148Z,0
2023-05-10T00:21:26.143Z,0
2023-05-10T00:22:26.162Z,0
2023-05-10T00:23:26.155Z,0
2023-05-10T00:24:26.188Z,0
2023-05-10T00:25:26.142Z,0
2023-05-10T00:26:26.132Z,0
2023-05-10T00:27:26.140Z,0
2023-05-10T00:28:26.149Z,0
2023-05-10T00:29:26.136Z,0
2023-05-10T00:30:26.148Z,0
2023-05-10T00:31:26.175Z,0
2023-05-10T00:32:26.196Z,0
2023-05-10T00:33:26.148Z,0
2023-05-10T00:34:26.145Z,0
2023-05-10T00:35:26.164Z,0
2023-05-10T00:36:26.170Z,0
2023-05-10T00:37:26.153Z,0
2023-05-10T00:38:26.155Z,0
2023-05-10T00:39:26.150Z,0
2023-05-10T00:40:26.130Z,0
2023-05-10T00:41:26.143Z,0
2023-05-10T00:42:26.148Z,0
2023-05-10T00:43:26.136Z,0
2023-05-10T00:44:26.141Z,0
2023-05-10T00:45:26.152Z,0
2023-05-10T00:46:26.136Z,0
2023-05-10T00:47:26.173Z,0
2023-05-10T00:48:26.142Z,0
2023-05-10T00:49:26.151Z,0
2023-05-10T00:50:26.133Z,0
2023-05-10T00:51:26.154Z,0
2023-05-10T00:52:26.148Z,0
2023-05-10T00:53:26.148Z,0
2023-05-10T00:54:26.145Z,0
2023-05-10T00:55:26.132Z,0
2023-05-10T00:56:26.137Z,0
2023-05-10T00:57:26.142Z,0
2023-05-10T00:58:26.138Z,0
2023-05-10T00:59:26.140Z,0
2023-05-10T01:00:26.148Z,0
2023-05-10T01:01:26.178Z,0
2023-05-10T01:02:26.256Z,0
2023-05-10T01:03:26.260Z,0
2023-05-10T01:04:26.187Z,0
2023-05-10T01:05:26.186Z,0
2023-05-10T01:06:26.162Z,0
2023-05-10T01:07:26.149Z,0
2023-05-10T01:08:26.165Z,0
2023-05-10T01:09:26.183Z,0
2023-05-10T01:10:26.160Z,0
2023-05-10T01:11:26.158Z,0
2023-05-10T01:12:26.233Z,0
2023-05-10T01:13:26.373Z,0
2023-05-10T01:14:26.156Z,0
2023-05-10T01:15:26.158Z,0
2023-05-10T01:16:26.324Z,0
2023-05-10T01:17:26.203Z,0
2023-05-10T01:18:26.157Z,0
2023-05-10T01:19:26.144Z,0
2023-05-10T01:20:26.161Z,0
2023-05-10T01:21:26.145Z,0
2023-05-10T01:22:26.154Z,0
2023-05-10T01:23:26.154Z,0
2023-05-10T01:24:26.149Z,0
2023-05-10T01:25:26.159Z,0
2023-05-10T01:26:26.156Z,0
2023-05-10T01:27:26.152Z,0
2023-05-10T01:28:26.180Z,0
2023-05-10T01:29:26.153Z,0
2023-05-10T01:30:26.488Z,0
2023-05-10T01:31:26.184Z,0
2023-05-10T01:32:26.198Z,0
2023-05-10T01:33:26.153Z,0
2023-05-10T01:34:26.161Z,0
2023-05-10T01:35:26.169Z,0
2023-05-10T01:36:26.168Z,0
2023-05-10T01:37:26.132Z,0
2023-05-10T01:38:26.145Z,0
2023-05-10T01:39:26.144Z,0
2023-05-10T01:40:26.152Z,0
2023-05-10T01:41:26.151Z,0
2023-05-10T01:42:26.148Z,0
2023-05-10T01:43:26.153Z,0
2023-05-10T01:44:26.146Z,0
2023-05-10T01:45:26.155Z,0
2023-05-10T01:46:26.159Z,0
2023-05-10T01:47:26.196Z,0
2023-05-10T01:48:26.151Z,0
2023-05-10T01:49:26.157Z,0
2023-05-10T01:50:26.148Z,0
2023-05-10T01:51:26.164Z,0
2023-05-10T01:52:26.136Z,0
2023-05-10T01:53:26.144Z,0
2023-05-10T01:54:26.160Z,0
2023-05-10T01:55:26.147Z,0
2023-05-10T01:56:26.148Z,0
2023-05-10T01:57:26.140Z,0
2023-05-10T01:58:26.141Z,0
2023-05-10T01:59:26.161Z,0
2023-05-10T02:00:26.157Z,0
2023-05-10T02:01:26.153Z,0
2023-05-10T02:02:26.187Z,0
2023-05-10T02:03:26.187Z,0
2023-05-10T02:04:26.161Z,0
2023-05-10T02:05:26.162Z,0
2023-05-10T02:06:26.144Z,0
2023-05-10T02:07:26.161Z,0
2023-05-10T02:08:26.140Z,0
2023-05-10T02:09:26.148Z,0
2023-05-10T02:10:26.145Z,0
2023-05-10T02:11:26.133Z,0
2023-05-10T02:12:26.147Z,0
2023-05-10T02:13:26.253Z,0
2023-05-10T02:14:26.156Z,0
2023-05-10T02:15:26.161Z,0
2023-05-10T02:16:26.246Z,0
2023-05-10T02:17:26.177Z,0
2023-05-10T02:18:26.147Z,0
2023-05-10T02:19:26.153Z,0
2023-05-10T02:20:26.148Z,0
2023-05-10T02:21:26.145Z,0
2023-05-10T02:22:26.141Z,0
2023-05-10T02:23:26.152Z,0
2023-05-10T02:24:26.153Z,0
2023-05-10T02:25:26.168Z,0
2023-05-10T02:26:26.145Z,0
2023-05-10T02:27:26.152Z,0
2023-05-10T02:28:26.147Z,0
2023-05-10T02:29:26.158Z,0
2023-05-10T02:30:26.147Z,0
2023-05-10T02:31:26.181Z,0
2023-05-10T02:32:26.223Z,0
2023-05-10T02:33:26.153Z,0
2023-05-10T02:34:26.163Z,0
2023-05-10T02:35:26.143Z,0
2023-05-10T02:36:26.148Z,0
2023-05-10T02:37:26.139Z,0
2023-05-10T02:38:26.196Z,0
2023-05-10T02:39:26.156Z,0
2023-05-10T02:40:28.554Z,0
2023-05-10T02:41:26.144Z,0
2023-05-10T02:42:26.139Z,0
2023-05-10T02:43:26.138Z,0
2023-05-10T02:44:26.145Z,0
2023-05-10T02:45:26.157Z,0
2023-05-10T02:46:26.166Z,0
2023-05-10T02:47:26.152Z,0
2023-05-10T02:48:26.139Z,0
2023-05-10T02:49:26.152Z,0
2023-05-10T02:50:26.146Z,0
2023-05-10T02:51:26.149Z,0
2023-05-10T02:52:26.140Z,0
2023-05-10T02:53:26.146Z,0
2023-05-10T02:54:26.155Z,0
2023-05-10T02:55:26.149Z,0
2023-05-10T02:56:26.167Z,0
2023-05-10T02:57:26.156Z,0
2023-05-10T02:58:26.145Z,0
2023-05-10T02:59:26.166Z,0
2023-05-10T03:00:26.156Z,0
2023-05-10T03:01:26.180Z,0
2023-05-10T03:02:26.207Z,0
2023-05-10T03:03:26.147Z,0
2023-05-10T03:04:26.232Z,0
2023-05-10T03:05:26.142Z,0
2023-05-10T03:06:26.142Z,0
2023-05-10T03:07:26.155Z,0
2023-05-10T03:08:26.156Z,0.01
2023-05-10T03:09:26.155Z,0.01
2023-05-10T03:10:26.142Z,0.01
2023-05-10T03:11:26.152Z,0.01
2023-05-10T03:12:26.153Z,0.01
2023-05-10T03:13:26.170Z,0.01
2023-05-10T03:14:26.151Z,0.02
2023-05-10T03:15:26.171Z,0.02
2023-05-10T03:16:26.318Z,0.02
2023-05-10T03:17:26.208Z,0.02
2023-05-10T03:18:26.148Z,0.03
2023-05-10T03:19:26.152Z,0.03
2023-05-10T03:20:26.152Z,0.03
2023-05-10T03:21:26.151Z,0.04
2023-05-10T03:22:26.161Z,0.04
2023-05-10T03:23:26.131Z,0.04
2023-05-10T03:24:26.153Z,0.05
2023-05-10T03:25:26.137Z,0.05
2023-05-10T03:26:26.145Z,0.05
2023-05-10T03:27:26.154Z,0.06
2023-05-10T03:28:26.132Z,0.06
2023-05-10T03:29:26.145Z,0.07
2023-05-10T03:30:26.147Z,0.07
2023-05-10T03:31:26.163Z,0.08
2023-05-10T03:32:26.166Z,0.08
2023-05-10T03:33:26.143Z,0.09
2023-05-10T03:34:26.201Z,0.09
2023-05-10T03:35:26.145Z,0.1
2023-05-10T03:36:26.139Z,0.1
2023-05-10T03:37:26.159Z,0.11
2023-05-10T03:38:27.329Z,0.12
2023-05-10T03:39:26.172Z,0.12
2023-05-10T03:40:26.147Z,0.13
2023-05-10T03:41:26.155Z,0.13
2023-05-10T03:42:26.163Z,0.14
2023-05-10T03:43:26.158Z,0.15
2023-05-10T03:44:26.148Z,0.15
2023-05-10T03:45:26.164Z,0.16
2023-05-10T03:46:26.165Z,0.17
2023-05-10T03:47:26.230Z,0.17
2023-05-10T03:48:26.163Z,0.18
2023-05-10T03:49:26.136Z,0.19
2023-05-10T03:50:26.159Z,0.19
2023-05-10T03:51:26.157Z,0.2
2023-05-10T03:52:26.147Z,0.21
2023-05-10T03:53:26.168Z,0.21
2023-05-10T03:54:26.145Z,0.22
2023-05-10T03:55:26.189Z,0.22
2023-05-10T03:56:26.162Z,0.23
2023-05-10T03:57:26.150Z,0.24
2023-05-10T03:58:26.184Z,0.25
2023-05-10T03:59:26.159Z,0.25
2023-05-10T04:00:26.150Z,0.26
2023-05-10T04:01:26.153Z,0.27
2023-05-10T04:02:26.355Z,0.27
2023-05-10T04:03:26.206Z,0.28
2023-05-10T04:04:26.140Z,0.29
2023-05-10T04:05:26.156Z,0.29
2023-05-10T04:06:26.234Z,0.3
2023-05-10T04:07:26.148Z,0.3
2023-05-10T04:08:26.151Z,0.3
2023-05-10T04:09:26.150Z,0.31
2023-05-10T04:10:26.139Z,0.32
2023-05-10T04:11:26.152Z,0.32
2023-05-10T04:12:26.161Z,0.33
2023-05-10T04:13:26.230Z,0.33
2023-05-10T04:14:26.149Z,0.34
2023-05-10T04:15:26.178Z,0.35
2023-05-10T04:16:26.188Z,0.35
2023-05-10T04:17:26.170Z,0.36
2023-05-10T04:18:26.176Z,0.37
2023-05-10T04:19:26.203Z,0.37
2023-05-10T04:20:26.149Z,0.38
2023-05-10T04:21:26.150Z,0.38
2023-05-10T04:22:26.169Z,0.39
2023-05-10T04:23:26.166Z,0.4
2023-05-10T04:24:26.150Z,0.4
2023-05-10T04:25:26.153Z,0.41
2023-05-10T04:26:26.147Z,0.41
2023-05-10T04:27:26.149Z,0.42
2023-05-10T04:28:26.156Z,0.43
2023-05-10T04:29:26.169Z,0.43
2023-05-10T04:30:26.164Z,0.44
2023-05-10T04:31:26.209Z,0.44
2023-05-10T04:32:26.170Z,0.45
2023-05-10T04:33:26.146Z,0.45
2023-05-10T04:34:26.143Z,0.46
2023-05-10T04:35:26.146Z,0.47
2023-05-10T04:36:26.146Z,0.48
2023-05-10T04:37:26.166Z,0.48
2023-05-10T04:38:26.152Z,0.48
2023-05-10T04:39:26.157Z,0.49
2023-05-10T04:40:26.137Z,0.49
2023-05-10T04:41:26.146Z,0.5
2023-05-10T04:42:26.160Z,0.5
2023-05-10T04:43:26.151Z,0.51
2023-05-10T04:44:26.160Z,0.51
2023-05-10T04:45:26.161Z,0.51
2023-05-10T04:46:26.160Z,0.52
2023-05-10T04:47:26.172Z,0.52
2023-05-10T04:48:26.138Z,0.53
2023-05-10T04:49:26.150Z,0.53
2023-05-10T04:50:26.132Z,0.54
2023-05-10T04:51:26.153Z,0.54
2023-05-10T04:52:26.157Z,0.55
2023-05-10T04:53:26.152Z,0.55
2023-05-10T04:54:26.144Z,0.55
2023-05-10T04:55:26.148Z,0.56
2023-05-10T04:56:26.152Z,0.56
2023-05-10T04:57:26.155Z,0.57
2023-05-10T04:58:26.159Z,0.57
2023-05-10T04:59:26.159Z,0.57
2023-05-10T05:00:26.152Z,0.58
2023-05-10T05:01:26.207Z,0.58
2023-05-10T05:02:26.195Z,0.58
2023-05-10T05:03:26.211Z,0.59
2023-05-10T05:04:26.148Z,0.58
2023-05-10T05:05:26.134Z,0.59
2023-05-10T05:06:26.154Z,0.59
2023-05-10T05:07:26.150Z,0.59
2023-05-10T05:08:26.141Z,0.6
2023-05-10T05:09:26.145Z,0.6
2023-05-10T05:10:26.137Z,0.61
2023-05-10T05:11:26.148Z,0.61
2023-05-10T05:12:26.160Z,0.62
2023-05-10T05:13:26.206Z,0.62
2023-05-10T05:14:26.209Z,0.62
2023-05-10T05:15:26.177Z,0.64
2023-05-10T05:16:26.181Z,0.63
2023-05-10T05:17:26.247Z,0.63
2023-05-10T05:18:26.146Z,0.64
2023-05-10T05:19:26.145Z,0.64
2023-05-10T05:20:26.136Z,0.64
2023-05-10T05:21:26.151Z,0.65
2023-05-10T05:22:26.161Z,0.65
2023-05-10T05:23:26.162Z,0.66
2023-05-10T05:24:26.149Z,0.66
2023-05-10T05:25:26.167Z,0.66
2023-05-10T05:26:26.159Z,0.67
2023-05-10T05:27:26.159Z,0.67
2023-05-10T05:28:26.137Z,0.67
2023-05-10T05:29:26.154Z,0.68
2023-05-10T05:30:26.149Z,0.68
2023-05-10T05:31:26.181Z,0.69
2023-05-10T05:32:26.228Z,0.69
2023-05-10T05:33:26.138Z,0.69
2023-05-10T05:34:26.141Z,0.69
2023-05-10T05:35:26.149Z,0.7
2023-05-10T05:36:26.151Z,0.7
2023-05-10T05:37:26.161Z,0.71
2023-05-10T05:38:26.151Z,0.71
2023-05-10T05:39:26.145Z,0.71
2023-05-10T05:40:26.131Z,0.72
2023-05-10T05:41:26.149Z,0.72
2023-05-10T05:42:26.226Z,0.72
2023-05-10T05:43:26.152Z,0.72
2023-05-10T05:44:26.148Z,0.73
2023-05-10T05:45:26.168Z,0.73
2023-05-10T05:46:26.213Z,0.74
2023-05-10T05:47:26.222Z,0.74
2023-05-10T05:48:26.148Z,0.74
2023-05-10T05:49:26.142Z,0.75
2023-05-10T05:50:26.133Z,0.75
2023-05-10T05:51:26.154Z,0.75
2023-05-10T05:52:26.154Z,0.76
2023-05-10T05:53:26.152Z,0.76
2023-05-10T05:54:26.148Z,0.76
2023-05-10T05:55:26.153Z,0.77
2023-05-10T05:56:26.175Z,0.77
2023-05-10T05:57:26.139Z,0.78
2023-05-10T05:58:26.151Z,0.78
2023-05-10T05:59:26.144Z,0.78
2023-05-10T06:00:26.152Z,0.79
2023-05-10T06:01:26.177Z,0.79
2023-05-10T06:02:26.244Z,0.79
2023-05-10T06:03:26.231Z,0.8
2023-05-10T06:04:26.172Z,0.8
2023-05-10T06:05:26.157Z,0.81
2023-05-10T06:06:26.149Z,0.81
2023-05-10T06:07:26.142Z,0.81
2023-05-10T06:08:26.141Z,0.81
2023-05-10T06:09:26.147Z,0.82
2023-05-10T06:10:26.141Z,0.82
2023-05-10T06:11:26.150Z,0.83
2023-05-10T06:12:26.130Z,0.83
2023-05-10T06:13:26.193Z,0.83
2023-05-10T06:14:26.154Z,0.84
2023-05-10T06:15:26.161Z,0.84
2023-05-10T06:16:26.148Z,0.84
2023-05-10T06:17:26.249Z,0.85
2023-05-10T06:18:26.151Z,0.85
2023-05-10T06:19:26.154Z,0.86
2023-05-10T06:20:26.173Z,0.86
2023-05-10T06:21:26.155Z,0.86
2023-05-10T06:22:26.138Z,0.87
2023-05-10T06:23:26.142Z,0.87
2023-05-10T06:24:26.148Z,0.88
2023-05-10T06:25:26.166Z,0.88
2023-05-10T06:26:26.143Z,0.89
2023-05-10T06:27:26.163Z,0.89
2023-05-10T06:28:26.145Z,0.89
2023-05-10T06:29:26.149Z,0.9
2023-05-10T06:30:26.164Z,0.9
2023-05-10T06:31:26.170Z,0.91
2023-05-10T06:32:26.182Z,0.91
2023-05-10T06:33:26.145Z,0.92
2023-05-10T06:34:26.147Z,0.92
2023-05-10T06:35:26.161Z,0.93
2023-05-10T06:36:26.152Z,0.93
2023-05-10T06:37:26.145Z,0.94
2023-05-10T06:38:26.145Z,0.94
2023-05-10T06:39:26.167Z,0.94
2023-05-10T06:40:26.187Z,0.94
2023-05-10T06:41:26.147Z,0.95
2023-05-10T06:42:26.144Z,0.95
2023-05-10T06:43:26.159Z,0.96
2023-05-10T06:44:26.156Z,0.97
2023-05-10T06:45:26.169Z,0.97
2023-05-10T06:46:26.216Z,0.98
2023-05-10T06:47:26.226Z,0.99
2023-05-10T06:48:26.152Z,1.01
2023-05-10T06:49:26.141Z,1.02
2023-05-10T06:50:26.150Z,1.04
2023-05-10T06:51:26.146Z,1.07
2023-05-10T06:52:26.149Z,1.67
2023-05-10T06:53:26.150Z,3.38
2023-05-10T06:54:26.139Z,4.68
2023-05-10T06:55:26.151Z,4.22
2023-05-10T06:56:26.143Z,4.11
2023-05-10T06:57:31.597Z,4.6
2023-05-10T06:58:26.158Z,5.08
2023-05-10T06:59:26.179Z,4.7
2023-05-10T07:00:26.231Z,5.02
2023-05-10T07:01:26.212Z,5.02
2023-05-10T07:02:26.323Z,4.52
2023-05-10T07:03:26.145Z,4.66
2023-05-10T07:04:26.168Z,5.1
2023-05-10T07:05:26.194Z,5.1
2023-05-10T07:06:33.429Z,4.85
2023-05-10T07:07:26.148Z,4.85
2023-05-10T07:08:26.146Z,4.28
2023-05-10T07:09:26.145Z,4.5
2023-05-10T07:10:26.135Z,5.41
2023-05-10T07:11:26.144Z,5.66
2023-05-10T07:12:26.183Z,6.09
2023-05-10T07:13:26.150Z,5.66
2023-05-10T07:14:26.146Z,5.12
2023-05-10T07:15:26.242Z,5.46
2023-05-10T07:16:26.185Z,5.37
2023-05-10T07:17:26.251Z,5.99
2023-05-10T07:18:26.239Z,6.28
2023-05-10T07:19:26.150Z,5.2
2023-05-10T07:20:26.128Z,5.8
2023-05-10T07:21:26.238Z,6.01
2023-05-10T07:22:26.142Z,5.37
2023-05-10T07:23:26.147Z,5.37
2023-05-10T07:24:26.150Z,6.08
2023-05-10T07:25:26.148Z,6.59
2023-05-10T07:26:26.160Z,5.87
2023-05-10T07:27:26.143Z,5.83
2023-05-10T07:28:26.145Z,6.27
2023-05-10T07:29:26.150Z,5.68
2023-05-10T07:30:26.198Z,5.68
2023-05-10T07:31:26.155Z,5.85
2023-05-10T07:32:26.400Z,5.49
2023-05-10T07:33:26.138Z,5.18
2023-05-10T07:34:26.161Z,5.87
2023-05-10T07:35:26.166Z,6.45
2023-05-10T07:36:26.164Z,6.47
2023-05-10T07:37:26.150Z,6.9
2023-05-10T07:38:26.147Z,6.26
2023-05-10T07:39:27.975Z,6.92
2023-05-10T07:40:26.145Z,7.39
2023-05-10T07:41:26.150Z,6.05
2023-05-10T07:42:26.149Z,6.35
2023-05-10T07:43:26.153Z,7.95
2023-05-10T07:44:26.170Z,7.9
2023-05-10T07:45:26.164Z,7.78
2023-05-10T07:46:26.315Z,7.48
2023-05-10T07:47:26.230Z,6.02
2023-05-10T07:48:26.139Z,5.3
2023-05-10T07:49:26.146Z,5.06
2023-05-10T07:50:26.149Z,5.44
2023-05-10T07:51:26.145Z,7.22
2023-05-10T07:52:26.148Z,8.28
2023-05-10T07:53:26.141Z,7.84
2023-05-10T07:54:26.156Z,6.71
2023-05-10T07:55:26.160Z,6.29
2023-05-10T07:56:26.148Z,6.94
2023-05-10T07:57:26.149Z,7.86
2023-05-10T07:58:26.153Z,8.2
2023-05-10T07:59:26.150Z,8.02
2023-05-10T08:00:26.156Z,7.85
2023-05-10T08:01:26.148Z,7.54
2023-05-10T08:02:26.210Z,6.97
2023-05-10T08:03:26.286Z,6.13
2023-05-10T08:04:26.231Z,6.61
2023-05-10T08:05:26.138Z,8.31
2023-05-10T08:06:26.141Z,8.97
2023-05-10T08:07:26.141Z,8.97
2023-05-10T08:08:26.142Z,8.17
2023-05-10T08:09:26.140Z,7.11
2023-05-10T08:10:26.127Z,7.12
2023-05-10T08:11:26.258Z,7.25
2023-05-10T08:12:26.131Z,7.13
2023-05-10T08:13:26.147Z,8.74
2023-05-10T08:14:26.135Z,8.94
2023-05-10T08:15:26.163Z,8.81
2023-05-10T08:16:26.183Z,9.27
2023-05-10T08:17:26.161Z,9.32
2023-05-10T08:18:26.160Z,8.07
2023-05-10T08:19:26.138Z,6.84
2023-05-10T08:20:26.158Z,6.64
2023-05-10T08:21:26.137Z,8.01
2023-05-10T08:22:26.144Z,9.21
2023-05-10T08:23:26.146Z,8.53
2023-05-10T08:24:26.141Z,7.64
2023-05-10T08:25:26.135Z,7.88
2023-05-10T08:26:26.146Z,8.65
2023-05-10T08:27:26.149Z,8.91
2023-05-10T08:28:26.133Z,8.27
2023-05-10T08:29:26.799Z,7.55
2023-05-10T08:30:26.162Z,6.73
2023-05-10T08:31:26.200Z,7.53
2023-05-10T08:32:26.233Z,9.43
2023-05-10T08:33:26.130Z,10.37
2023-05-10T08:34:26.374Z,9.09
2023-05-10T08:35:26.142Z,7.9
2023-05-10T08:36:26.150Z,8.25
2023-05-10T08:37:26.142Z,8.44
2023-05-10T08:38:26.152Z,8.42
2023-05-10T08:39:30.253Z,9.26
2023-05-10T08:40:26.136Z,9.74
2023-05-10T08:41:26.188Z,8.88
2023-05-10T08:42:26.138Z,8.92
2023-05-10T08:43:26.190Z,9.8
2023-05-10T08:44:26.195Z,9.39
2023-05-10T08:45:26.208Z,7.4
2023-05-10T08:46:26.200Z,5.34
2023-05-10T08:47:26.191Z,5.79
2023-05-10T08:48:26.224Z,8.15
2023-05-10T08:49:26.141Z,9.46
2023-05-10T08:50:26.146Z,9.45
2023-05-10T08:51:26.140Z,9.52
2023-05-10T08:52:26.145Z,10.14
2023-05-10T08:53:26.153Z,10.58
2023-05-10T08:54:26.143Z,8.46
2023-05-10T08:55:26.159Z,7.53
2023-05-10T08:56:26.169Z,8.45
2023-05-10T08:57:26.143Z,10.35
2023-05-10T08:58:26.151Z,12.17
2023-05-10T08:59:26.154Z,12.09
2023-05-10T09:00:26.155Z,10.44
2023-05-10T09:01:26.166Z,8.35
2023-05-10T09:02:26.152Z,8.47
2023-05-10T09:03:26.153Z,10.32
2023-05-10T09:04:26.250Z,11.27
2023-05-10T09:05:26.182Z,10.49
2023-05-10T09:06:26.137Z,9.49
2023-05-10T09:07:26.142Z,9.49
2023-05-10T09:08:26.130Z,12.38
2023-05-10T09:09:26.156Z,11.24
2023-05-10T09:10:26.147Z,8.39
2023-05-10T09:11:26.134Z,5.68
2023-05-10T09:12:26.145Z,5.69
2023-05-10T09:13:26.186Z,8.29
2023-05-10T09:14:26.191Z,11.5
2023-05-10T09:15:26.191Z,12.27
2023-05-10T09:16:26.205Z,11.12
2023-05-10T09:17:26.268Z,10.21
2023-05-10T09:18:28.014Z,10.16
2023-05-10T09:19:26.152Z,10.86
2023-05-10T09:20:26.136Z,10.91
2023-05-10T09:21:26.178Z,11.07
2023-05-10T09:22:26.141Z,10.67
2023-05-10T09:23:26.160Z,9.46
2023-05-10T09:24:26.148Z,8.69
2023-05-10T09:25:26.187Z,8.92
2023-05-10T09:26:26.133Z,9.93
2023-05-10T09:27:26.147Z,11.58
2023-05-10T09:28:26.155Z,11.63
2023-05-10T09:29:26.162Z,9.92
2023-05-10T09:30:26.157Z,9.24
2023-05-10T09:31:26.308Z,10.28
2023-05-10T09:32:26.204Z,10.75
2023-05-10T09:33:26.154Z,10.03
2023-05-10T09:34:26.145Z,9.71
2023-05-10T09:35:28.818Z,10.88
2023-05-10T09:36:26.143Z,11.39
2023-05-10T09:37:26.149Z,10.35
2023-05-10T09:38:26.147Z,8.7
2023-05-10T09:39:26.146Z,8.44
2023-05-10T09:40:26.131Z,8.75
2023-05-10T09:41:26.151Z,9.09
2023-05-10T09:42:26.146Z,9.41
2023-05-10T09:43:26.138Z,10.2
2023-05-10T09:44:26.159Z,11.01
2023-05-10T09:45:26.162Z,11.77
2023-05-10T09:46:26.178Z,11.49
2023-05-10T09:47:26.194Z,10.23
2023-05-10T09:48:26.164Z,8.51
2023-05-10T09:49:26.152Z,7.84
2023-05-10T09:50:26.135Z,8.68
2023-05-10T09:51:26.159Z,10.56
2023-05-10T09:52:26.145Z,11.46
2023-05-10T09:53:26.131Z,12.15
2023-05-10T09:54:26.145Z,12.48
2023-05-10T09:55:26.153Z,12.61
2023-05-10T09:56:26.158Z,12.13
2023-05-10T09:57:26.160Z,11.34
2023-05-10T09:58:26.153Z,11.14
2023-05-10T09:59:26.147Z,11.09
2023-05-10T10:00:26.160Z,10.75
2023-05-10T10:01:26.207Z,10.01
2023-05-10T10:02:26.172Z,9.34
2023-05-10T10:03:27.809Z,9.24
2023-05-10T10:04:26.183Z,9.98
2023-05-10T10:05:26.156Z,10.01
2023-05-10T10:06:30.259Z,10.23
2023-05-10T10:07:26.139Z,10.23
2023-05-10T10:08:26.153Z,11.74
2023-05-10T10:09:26.169Z,12.41
2023-05-10T10:10:26.153Z,12.4
2023-05-10T10:11:26.149Z,11.67
2023-05-10T10:12:26.152Z,10.97
2023-05-10T10:13:26.165Z,10.71
2023-05-10T10:14:26.145Z,10.11
2023-05-10T10:15:26.167Z,9.9
2023-05-10T10:16:26.219Z,11.34
2023-05-10T10:17:26.221Z,11.85
2023-05-10T10:18:26.170Z,10.61
2023-05-10T10:19:26.161Z,8.23
2023-05-10T10:20:26.170Z,7.28
2023-05-10T10:21:31.652Z,8.24
2023-05-10T10:22:30.696Z,10.42
2023-05-10T10:23:30.682Z,10.59
2023-05-10T10:24:30.726Z,10.39
2023-05-10T10:25:30.675Z,10.91
2023-05-10T10:26:30.686Z,11.6
2023-05-10T10:27:30.687Z,11.69
2023-05-10T10:28:30.687Z,10.71
2023-05-10T10:29:30.679Z,11.01
2023-05-10T10:30:30.712Z,11.82
2023-05-10T10:31:30.698Z,12.19
2023-05-10T10:32:30.706Z,11.53
2023-05-10T10:33:30.729Z,11.18
2023-05-10T10:34:30.680Z,11.29
2023-05-10T10:35:30.670Z,11.08
2023-05-10T10:36:30.673Z,10.67
2023-05-10T10:37:30.677Z,10.68
2023-05-10T10:38:30.676Z,11.57
2023-05-10T10:39:30.689Z,12.17
2023-05-10T10:40:33.540Z,11.72
2023-05-10T10:41:30.675Z,10.27
2023-05-10T10:42:30.691Z,9.41
2023-05-10T10:43:30.686Z,9.82
2023-05-10T10:44:30.662Z,10.77
2023-05-10T10:45:30.687Z,11.35
2023-05-10T10:46:30.692Z,10.8
2023-05-10T10:47:30.777Z,9.66
2023-05-10T10:48:30.662Z,10.21
2023-05-10T10:49:30.667Z,10.83
2023-05-10T10:50:30.661Z,10.89
2023-05-10T10:51:30.668Z,11.21
2023-05-10T10:52:30.678Z,11.46
2023-05-10T10:53:30.717Z,11.12
2023-05-10T10:54:30.669Z,11.05
2023-05-10T10:55:30.666Z,10.92
2023-05-10T10:56:30.676Z,9.6
2023-05-10T10:57:30.668Z,8.48
2023-05-10T10:58:30.672Z,8.57
2023-05-10T10:59:30.671Z,9.64
2023-05-10T11:00:30.672Z,11.03
2023-05-10T11:01:30.677Z,11.93
2023-05-10T11:02:31.408Z,12.06
2023-05-10T11:03:30.678Z,11.32
2023-05-10T11:04:30.714Z,11.16
2023-05-10T11:05:30.671Z,12.09
2023-05-10T11:06:30.683Z,12.38
2023-05-10T11:07:30.663Z,12.38
2023-05-10T11:08:30.683Z,12.09
2023-05-10T11:09:30.664Z,12.51
2023-05-10T11:10:30.665Z,12.43
2023-05-10T11:11:30.666Z,12.09
2023-05-10T11:12:30.671Z,12.36
2023-05-10T11:13:30.660Z,12.46
2023-05-10T11:14:30.667Z,11.78
2023-05-10T11:15:30.674Z,10.63
2023-05-10T11:16:30.674Z,9.7
2023-05-10T11:17:30.690Z,10.92
2023-05-10T11:18:30.726Z,12.67
2023-05-10T11:19:30.668Z,12.35
2023-05-10T11:20:30.652Z,10.63
2023-05-10T11:21:30.653Z,9.52
2023-05-10T11:22:30.665Z,10.02
2023-05-10T11:23:30.662Z,10.6
2023-05-10T11:24:30.664Z,10.35
2023-05-10T11:25:30.667Z,10.31
2023-05-10T11:26:30.660Z,11.51
2023-05-10T11:27:30.667Z,12.26
2023-05-10T11:28:30.661Z,11.25
2023-05-10T11:29:30.659Z,9.47
2023-05-10T11:30:30.708Z,9.65
2023-05-10T11:31:30.943Z,10.91
2023-05-10T11:32:30.668Z,11.82
2023-05-10T11:33:30.671Z,11.58
2023-05-10T11:34:30.676Z,11.16
2023-05-10T11:35:30.661Z,10.54
2023-05-10T11:36:30.664Z,10.39
2023-05-10T11:37:30.664Z,10.07
2023-05-10T11:38:30.673Z,9.53
2023-05-10T11:39:30.654Z,9.25
2023-05-10T11:40:30.663Z,9.57
2023-05-10T11:41:30.652Z,10.73
2023-05-10T11:42:30.661Z,11.56
2023-05-10T11:43:30.660Z,11.04
2023-05-10T11:44:30.671Z,9.36
2023-05-10T11:45:30.662Z,7.33
2023-05-10T11:46:30.704Z,6.48
2023-05-10T11:47:30.725Z,7.5
2023-05-10T11:48:30.663Z,8.8
2023-05-10T11:49:30.754Z,10.25
2023-05-10T11:50:30.670Z,11.36
2023-05-10T11:51:30.659Z,12.54
2023-05-10T11:52:30.666Z,12.68
2023-05-10T11:53:30.673Z,11.98
2023-05-10T11:54:30.659Z,11.34
2023-05-10T11:55:30.665Z,11.22
2023-05-10T11:56:30.737Z,11.26
2023-05-10T11:57:30.665Z,11.22
2023-05-10T11:58:30.659Z,10.87
2023-05-10T11:59:30.674Z,11.05
2023-05-10T12:00:30.746Z,11.33
2023-05-10T12:01:30.667Z,10.95
2023-05-10T12:02:30.747Z,11.13
2023-05-10T12:03:30.719Z,10.8
2023-05-10T12:04:30.852Z,10.74
2023-05-10T12:05:30.667Z,10.77
2023-05-10T12:06:30.673Z,10.44
2023-05-10T12:07:30.665Z,10.44
2023-05-10T12:08:30.661Z,7.61
2023-05-10T12:09:43.376Z,7.8
2023-05-10T12:10:30.653Z,8.4
2023-05-10T12:11:30.663Z,8.45
2023-05-10T12:12:30.656Z,8.83
2023-05-10T12:13:30.656Z,10.16
2023-05-10T12:14:30.661Z,10.37
2023-05-10T12:15:30.685Z,10.87
2023-05-10T12:16:30.754Z,9.88
2023-05-10T12:17:30.699Z,10
2023-05-10T12:18:30.662Z,9.86
2023-05-10T12:19:30.658Z,9.42
2023-05-10T12:20:30.671Z,9.42
2023-05-10T12:21:30.659Z,9.42
2023-05-10T12:22:30.657Z,8.79
2023-05-10T12:23:30.671Z,7.89
2023-05-10T12:24:30.658Z,8.69
2023-05-10T12:25:30.677Z,9.9
2023-05-10T12:26:30.682Z,11.17
2023-05-10T12:27:30.654Z,7.71
2023-05-10T12:28:30.662Z,8.58
2023-05-10T12:29:30.652Z,9.67
2023-05-10T12:30:30.660Z,11
2023-05-10T12:31:30.726Z,10.89
2023-05-10T12:32:30.688Z,9.55
2023-05-10T12:33:30.664Z,10.06
2023-05-10T12:34:30.664Z,8.42
2023-05-10T12:35:30.660Z,7.28
2023-05-10T12:36:30.683Z,7.1
2023-05-10T12:37:30.659Z,8.6
2023-05-10T12:38:30.710Z,9.08
2023-05-10T12:39:30.661Z,8.44
2023-05-10T12:40:30.700Z,8.67
2023-05-10T12:41:30.661Z,9.82
2023-05-10T12:42:30.656Z,10.33
2023-05-10T12:43:30.663Z,9.77
2023-05-10T12:44:30.673Z,8.79
2023-05-10T12:45:30.675Z,8.55
2023-05-10T12:46:30.785Z,8.82
2023-05-10T12:47:30.715Z,9.03
2023-05-10T12:48:30.667Z,7.96
2023-05-10T12:49:30.676Z,8.99
2023-05-10T12:50:30.657Z,8.94
2023-05-10T12:51:30.666Z,8.64
2023-05-10T12:52:30.660Z,8.17
2023-05-10T12:53:30.676Z,8.07
2023-05-10T12:54:30.651Z,8.4
2023-05-10T12:55:30.649Z,9.73
2023-05-10T12:56:30.704Z,10.26
2023-05-10T12:57:30.678Z,8.89
2023-05-10T12:58:35.960Z,7.37
2023-05-10T12:59:30.671Z,7.39
2023-05-10T13:00:30.671Z,9.13
2023-05-10T13:01:30.698Z,10.13
2023-05-10T13:02:30.762Z,8.95
2023-05-10T13:03:30.677Z,8.62
2023-05-10T13:04:30.754Z,8.68
2023-05-10T13:05:30.651Z,8.12
2023-05-10T13:06:30.670Z,7.94
2023-05-10T13:07:30.664Z,7.94
2023-05-10T13:08:30.698Z,8.92
2023-05-10T13:09:30.759Z,8.44
2023-05-10T13:10:30.655Z,7.87
2023-05-10T13:11:30.654Z,7.28
2023-05-10T13:12:30.658Z,6.58
2023-05-10T13:13:30.664Z,5.74
2023-05-10T13:14:30.664Z,6.31
2023-05-10T13:15:30.681Z,6.85
2023-05-10T13:16:30.714Z,5.84
2023-05-10T13:17:32.105Z,5.2
2023-05-10T13:18:30.697Z,5.04
2023-05-10T13:19:30.664Z,5.53
2023-05-10T13:20:30.646Z,6.73
2023-05-10T13:21:30.693Z,7.48
2023-05-10T13:22:39.790Z,6.8
2023-05-10T13:23:30.689Z,6.93
2023-05-10T13:24:30.666Z,5.54
2023-05-10T13:25:30.647Z,5.09
2023-05-10T13:26:30.671Z,5.48
2023-05-10T13:27:30.660Z,5.82
2023-05-10T13:28:30.655Z,6.5
2023-05-10T13:29:30.666Z,6.25
2023-05-10T13:30:30.666Z,6.85
2023-05-10T13:31:30.747Z,6.73
2023-05-10T13:32:30.675Z,5.41
2023-05-10T13:33:30.676Z,5.34
2023-05-10T13:34:30.646Z,5.63